Printer, Kentucky
Current Conditions -  °F | °C
As of 2:55 AM on Monday 24 Nov 2014 (Local Time) from KPBX Reporting Station
Overcast Overcast  
Wind Chill: 62°   Ceiling: 6000
Heat Index: 62°   Visibility: 10mi
Dew Point: 51°   Wind: 9mph
Humidity: 69%   Direction: 200°SSW
Pressure: 29.54"   Gusts: 17mph
Location:  37.53°N, 82.75°W
Report Text: KPBX 240755Z AUTO 20008G15KT 10SM SCT038 OVC060 17/11 A2954 RMK AO2 T01660108
Loading
Personal Weather Stations






























Interactive Weather Map New forecast layout! Learn more

10-Day Weather Forecast

Advertisements
Track Severe Weather on mobile